Aeroporto :
LOGIN :

Iscrizione | Disclaimer

   EN    FR    IT 

 










Sommario :    VFR   VFR Marginale   IFR   IFR Intensivo   IFR Molto Intensivo
Visibilità : 
Base nubi : 
>= 8 km
>= 3000ft
5 / 8 km
1000 / 3000 ft
1500m / 5 km
500 / 1000 ft
800 / 1500m
200 / 500 ft
< 800m
< 200 ft
Simboli :   Temporali  Nebbia  Neve Forte  Precipitazioni Forti  Vento > 20 kt
SIGMETs :   Varie  Temporali  Ghiacco  Turbolenza  Onda orograficha  Ceneri Vulcaniche






- Altitudine del aeroporto : 778 ft
- Codice IATA : BRQ


LKTB - Brno-Turany

ULTIMO METAR :
  • 162200Z 05004KT CAVOK 15/12 Q1013 NOSIG

METARs OBSOLETI :
  • 162130Z 03005KT CAVOK 17/13 Q1013 NOSIG
  • 162100Z 05004KT CAVOK 17/13 Q1013 NOSIG
  • 162030Z 03004KT CAVOK 17/13 Q1013 NOSIG
  • 162000Z 03003KT CAVOK 19/13 Q1012 NOSIG
  • 161930Z 00000KT CAVOK 20/13 Q1012 NOSIG
  • 161900Z 17002KT CAVOK 20/13 Q1012 NOSIG
  • 161830Z VRB02KT CAVOK 21/13 Q1012 NOSIG
  • 161800Z 20002KT CAVOK 22/13 Q1012 NOSIG
  • 161730Z 17002KT 9999 FEW049 22/13 Q1011 NOSIG

TAF TAF LKTB
Valido dal 16 a 18 ore il 17 a 18 ore UTC


161700Z 1618/1718 VRB02KT CAVOK
PROB30
TEMPO 1700/1704 5000 BR NSC
TEMPO 1714/1718 4000 SHRA SCT035CB



MetMap, La meteo Aeronautica in un colpo d'occhio ! - Copyright ORBIFLY Dicembre 2007 - Disclaimer

ORBIFLY MET'MAP TEAM :

Programmazione e sviluppo : Alexandra Zaïnal
Concezione : Baudouin d'Aumeries
Supporto tecnico e logistico : Manuel Goepfert
Aiuto : Marc-Olivier Méhu
Aiuto per la traduzione : Arnaldo La Scala




FONTI E CREDITI :

   NOAA